Time;durP1;ratioP1;P1;durP2;ratioP2;P2;SDS_P1;SDS_P2;PMS_P1;PMS_P2;Temp;Humidity;BMP_temperature;BMP_pressure;BME280_temperature;BME280_humidity;BME280_pressure;Samples;Min_cycle;Max_cycle;Signal;HPM_P1;HPM_P2
2023/05/05 00:00:37;;;;;;;10.93;5.20;;;;;;;;;;5052210;28;20103;-73
2023/05/05 00:03:03;;;;;;;9.73;4.80;;;;;;;;;;5033375;28;20124;-73
2023/05/05 00:05:29;;;;;;;9.43;5.00;;;;;;;;;;5032123;28;20046;-74
2023/05/05 00:07:55;;;;;;;11.23;5.05;;;;;;;;;;5014267;28;20068;-72
2023/05/05 00:10:21;;;;;;;12.23;5.30;;;;;;;;;;5032063;28;20081;-72
2023/05/05 00:12:47;;;;;;;9.27;4.65;;;;;;;;;;5030907;28;20041;-73
2023/05/05 00:15:14;;;;;;;11.27;5.15;;;;;;;;;;5031632;28;20048;-73
2023/05/05 00:17:40;;;;;;;11.60;5.53;;;;;;;;;;5029643;28;20489;-73
2023/05/05 00:20:07;;;;;;;8.95;5.07;;;;;;;;;;5030229;28;20052;-73
2023/05/05 00:22:33;;;;;;;12.65;5.10;;;;;;;;;;5013707;28;20038;-73
2023/05/05 00:24:59;;;;;;;15.35;5.25;;;;;;;;;;5031814;28;20423;-73
2023/05/05 00:27:25;;;;;;;10.70;4.93;;;;;;;;;;5030774;28;20037;-73
2023/05/05 00:29:51;;;;;;;11.45;4.88;;;;;;;;;;5030533;28;20099;-73
2023/05/05 00:32:17;;;;;;;12.75;5.60;;;;;;;;;;5034373;28;20049;-72
2023/05/05 00:34:43;;;;;;;9.73;5.20;;;;;;;;;;5035572;28;20041;-73
2023/05/05 00:37:10;;;;;;;10.73;5.20;;;;;;;;;;5035239;28;20509;-73
2023/05/05 00:39:36;;;;;;;11.38;5.40;;;;;;;;;;5017361;28;20095;-73
2023/05/05 00:42:02;;;;;;;10.98;5.20;;;;;;;;;;5017617;28;20048;-72
2023/05/05 00:44:46;;;;;;;11.80;4.95;;;;;;;;;;5034728;28;20396;-73
2023/05/05 00:47:12;;;;;;;10.02;5.05;;;;;;;;;;5034885;28;20449;-73
2023/05/05 00:49:39;;;;;;;10.00;5.00;;;;;;;;;;5025844;28;20045;-73
2023/05/05 00:52:06;;;;;;;8.90;5.40;;;;;;;;;;5033060;28;20300;-73
2023/05/05 00:54:33;;;;;;;9.52;5.10;;;;;;;;;;5043840;28;20057;-73
2023/05/05 00:56:59;;;;;;;11.65;5.25;;;;;;;;;;5055672;28;20405;-73
2023/05/05 00:59:27;;;;;;;13.02;5.40;;;;;;;;;;5039990;28;20068;-73
2023/05/05 01:01:53;;;;;;;12.45;5.43;;;;;;;;;;5034310;28;20531;-73
2023/05/05 01:04:19;;;;;;;11.75;5.78;;;;;;;;;;5035477;28;20046;-73
2023/05/05 01:07:03;;;;;;;13.35;5.63;;;;;;;;;;5001224;28;20045;-72
2023/05/05 01:09:32;;;;;;;9.05;5.25;;;;;;;;;;5034234;28;20049;-73
2023/05/05 01:12:21;;;;;;;9.20;5.00;;;;;;;;;;5053672;28;20253;-72
2023/05/05 01:14:52;;;;;;;8.55;4.80;;;;;;;;;;5048315;28;20098;-73
2023/05/05 01:17:19;;;;;;;9.88;5.72;;;;;;;;;;5053882;28;20046;-72
2023/05/05 01:19:51;;;;;;;10.77;5.25;;;;;;;;;;5054871;28;20502;-72
2023/05/05 01:22:20;;;;;;;8.20;5.13;;;;;;;;;;5055261;28;20546;-72
2023/05/05 01:24:55;;;;;;;10.63;5.43;;;;;;;;;;5046991;28;20459;-73
2023/05/05 01:27:21;;;;;;;12.25;5.55;;;;;;;;;;5034506;28;20048;-73
2023/05/05 01:30:07;;;;;;;10.60;5.53;;;;;;;;;;5030498;28;20037;-72
2023/05/05 01:32:35;;;;;;;12.07;5.22;;;;;;;;;;5032469;28;20065;-72
2023/05/05 01:35:02;;;;;;;9.65;5.82;;;;;;;;;;5035071;28;20077;-72
2023/05/05 01:37:47;;;;;;;9.07;5.20;;;;;;;;;;5034493;28;20091;-73
2023/05/05 01:40:14;;;;;;;11.45;5.60;;;;;;;;;;5033621;28;20049;-72
2023/05/05 01:42:42;;;;;;;9.55;5.57;;;;;;;;;;5031911;28;20084;-72
2023/05/05 01:45:08;;;;;;;9.77;5.43;;;;;;;;;;5034712;28;20050;-73
2023/05/05 01:47:36;;;;;;;11.10;5.43;;;;;;;;;;5033780;28;20116;-72
2023/05/05 01:50:03;;;;;;;11.95;5.43;;;;;;;;;;5031791;28;20038;-73
2023/05/05 01:52:30;;;;;;;10.38;5.40;;;;;;;;;;5032998;28;20049;-72
2023/05/05 01:54:57;;;;;;;10.05;5.32;;;;;;;;;;5034229;28;20121;-72
2023/05/05 01:57:25;;;;;;;8.02;5.60;;;;;;;;;;5034326;28;20056;-72
2023/05/05 01:59:51;;;;;;;10.50;5.63;;;;;;;;;;5048150;28;20057;-72
2023/05/05 02:02:20;;;;;;;11.52;5.78;;;;;;;;;;5052114;28;20053;-72
2023/05/05 02:04:46;;;;;;;10.40;5.50;;;;;;;;;;5034276;28;20049;-73
2023/05/05 02:07:13;;;;;;;12.68;5.72;;;;;;;;;;5032811;28;20041;-71
2023/05/05 02:09:40;;;;;;;10.70;5.25;;;;;;;;;;5033579;28;20034;-73
2023/05/05 02:12:07;;;;;;;10.57;5.50;;;;;;;;;;5015197;28;20128;-72
2023/05/05 02:14:34;;;;;;;9.13;5.40;;;;;;;;;;5015981;28;20045;-73
2023/05/05 02:17:00;;;;;;;8.18;5.40;;;;;;;;;;5018806;28;20437;-72
2023/05/05 02:19:31;;;;;;;10.35;5.60;;;;;;;;;;5036177;28;20455;-73
2023/05/05 02:21:57;;;;;;;12.60;5.20;;;;;;;;;;5033373;28;20051;-72
2023/05/05 02:24:25;;;;;;;9.63;5.25;;;;;;;;;;5033604;28;20033;-73
2023/05/05 02:26:52;;;;;;;9.93;5.60;;;;;;;;;;5033923;28;20052;-73
2023/05/05 02:29:19;;;;;;;12.57;5.63;;;;;;;;;;5033480;28;20046;-72
2023/05/05 02:31:50;;;;;;;8.27;5.22;;;;;;;;;;5032868;28;20140;-72
2023/05/05 02:34:19;;;;;;;9.55;5.40;;;;;;;;;;5015953;28;20472;-72
2023/05/05 02:36:45;;;;;;;10.27;5.78;;;;;;;;;;5033516;28;20225;-72
2023/05/05 02:39:30;;;;;;;9.50;5.55;;;;;;;;;;5032940;28;20103;-72
2023/05/05 02:41:57;;;;;;;11.27;5.65;;;;;;;;;;5033620;28;20057;-72
2023/05/05 02:44:24;;;;;;;9.25;5.60;;;;;;;;;;5032809;28;20045;-72
2023/05/05 02:46:50;;;;;;;11.35;5.82;;;;;;;;;;5014451;28;20129;-73
2023/05/05 02:49:16;;;;;;;13.70;5.80;;;;;;;;;;5033463;28;20454;-73
2023/05/05 02:51:42;;;;;;;10.45;5.70;;;;;;;;;;5032849;28;20041;-72
2023/05/05 02:54:08;;;;;;;9.15;5.32;;;;;;;;;;5014849;28;20518;-73
2023/05/05 02:56:39;;;;;;;11.57;5.68;;;;;;;;;;5033019;28;20049;-73
2023/05/05 02:59:19;;;;;;;11.43;6.07;;;;;;;;;;5011528;28;20050;-72
2023/05/05 03:01:45;;;;;;;10.68;5.55;;;;;;;;;;5013345;28;20375;-73
2023/05/05 03:04:15;;;;;;;10.38;5.43;;;;;;;;;;5013000;28;20049;-73
2023/05/05 03:06:43;;;;;;;10.93;5.57;;;;;;;;;;5010150;28;20085;-73
2023/05/05 03:09:24;;;;;;;12.40;5.80;;;;;;;;;;5013367;28;20108;-73
2023/05/05 03:11:54;;;;;;;9.75;5.43;;;;;;;;;;5011136;28;20046;-72
2023/05/05 03:14:21;;;;;;;12.63;5.93;;;;;;;;;;5012464;28;20438;-72
2023/05/05 03:16:48;;;;;;;7.82;4.93;;;;;;;;;;5008462;28;20099;-72
2023/05/05 03:19:16;;;;;;;10.32;5.50;;;;;;;;;;5005989;28;20159;-73
2023/05/05 03:21:43;;;;;;;9.80;5.32;;;;;;;;;;5008611;28;20544;-72
2023/05/05 03:24:15;;;;;;;12.07;5.65;;;;;;;;;;5012662;28;20044;-72
2023/05/05 03:26:42;;;;;;;8.05;5.13;;;;;;;;;;5012771;28;20042;-72
2023/05/05 03:29:08;;;;;;;9.93;4.75;;;;;;;;;;5012714;28;20092;-72
2023/05/05 03:31:34;;;;;;;8.15;5.20;;;;;;;;;;5010771;28;20376;-72
2023/05/05 03:34:00;;;;;;;9.82;4.85;;;;;;;;;;5013010;28;20089;-72
2023/05/05 03:36:26;;;;;;;12.20;5.47;;;;;;;;;;5012650;28;20046;-72
2023/05/05 03:38:52;;;;;;;10.77;5.60;;;;;;;;;;5012456;28;20046;-72
2023/05/05 03:41:19;;;;;;;14.15;5.60;;;;;;;;;;5012480;28;20454;-72
2023/05/05 03:43:45;;;;;;;10.20;5.25;;;;;;;;;;5009969;28;20406;-72
2023/05/05 03:46:11;;;;;;;11.43;5.35;;;;;;;;;;5013008;28;20491;-72
2023/05/05 03:48:37;;;;;;;8.73;5.18;;;;;;;;;;5012201;28;20045;-72
2023/05/05 03:51:03;;;;;;;13.93;5.45;;;;;;;;;;5026990;28;20049;-72
2023/05/05 03:53:30;;;;;;;11.88;5.25;;;;;;;;;;5011750;28;20038;-73
2023/05/05 03:55:56;;;;;;;11.95;5.10;;;;;;;;;;5010088;28;20053;-73
2023/05/05 03:58:22;;;;;;;10.43;5.78;;;;;;;;;;5012301;28;20401;-72
2023/05/05 04:00:48;;;;;;;11.68;5.45;;;;;;;;;;5050053;28;20323;-72
2023/05/05 04:03:15;;;;;;;10.02;5.50;;;;;;;;;;5044360;28;20486;-73
2023/05/05 04:05:41;;;;;;;10.43;5.20;;;;;;;;;;5030819;28;20512;-72
2023/05/05 04:08:07;;;;;;;11.50;5.05;;;;;;;;;;5035135;28;20398;-73
2023/05/05 04:10:33;;;;;;;11.10;5.38;;;;;;;;;;5036045;28;20107;-72
2023/05/05 04:12:59;;;;;;;10.70;5.10;;;;;;;;;;5032562;28;20057;-73
2023/05/05 04:15:25;;;;;;;8.23;5.30;;;;;;;;;;5029150;28;20107;-72
2023/05/05 04:17:52;;;;;;;10.20;5.00;;;;;;;;;;5029677;28;20406;-73
2023/05/05 04:20:18;;;;;;;9.20;5.43;;;;;;;;;;5029379;28;20125;-73
2023/05/05 04:22:44;;;;;;;10.80;5.38;;;;;;;;;;5035493;28;20076;-73
2023/05/05 04:25:10;;;;;;;10.13;5.57;;;;;;;;;;5035830;28;20072;-72
2023/05/05 04:27:36;;;;;;;11.20;5.38;;;;;;;;;;5018379;28;20045;-72
2023/05/05 04:30:03;;;;;;;11.27;5.40;;;;;;;;;;5034404;28;20100;-72
2023/05/05 04:32:29;;;;;;;11.10;5.90;;;;;;;;;;5035335;28;20102;-73
2023/05/05 04:34:55;;;;;;;9.18;5.45;;;;;;;;;;5035839;28;20254;-73
2023/05/05 04:37:21;;;;;;;10.23;5.50;;;;;;;;;;5035909;28;20119;-72
2023/05/05 04:39:47;;;;;;;10.15;5.47;;;;;;;;;;5035403;28;20041;-72
2023/05/05 04:42:13;;;;;;;9.23;5.10;;;;;;;;;;5035805;28;20052;-72
2023/05/05 04:44:39;;;;;;;11.73;5.50;;;;;;;;;;5033873;28;20041;-72
2023/05/05 04:47:05;;;;;;;9.98;5.85;;;;;;;;;;5015478;28;20144;-73
2023/05/05 04:49:31;;;;;;;9.90;5.88;;;;;;;;;;5034818;28;20053;-73
2023/05/05 04:51:57;;;;;;;11.23;6.15;;;;;;;;;;5035097;28;20063;-72
2023/05/05 04:54:24;;;;;;;10.77;5.82;;;;;;;;;;5032578;28;20037;-72
2023/05/05 04:56:50;;;;;;;10.52;5.90;;;;;;;;;;5015804;28;20128;-73
2023/05/05 04:59:16;;;;;;;12.55;5.82;;;;;;;;;;5034411;28;20068;-72
2023/05/05 05:01:42;;;;;;;12.45;6.45;;;;;;;;;;5034596;28;20041;-73
2023/05/05 05:04:12;;;;;;;9.65;5.68;;;;;;;;;;5034179;28;20116;-72
2023/05/05 05:06:38;;;;;;;9.73;5.78;;;;;;;;;;5033758;28;20103;-72
2023/05/05 05:09:04;;;;;;;8.98;6.18;;;;;;;;;;5035479;28;20042;-72
2023/05/05 05:11:30;;;;;;;9.85;5.93;;;;;;;;;;5033389;28;20045;-72
2023/05/05 05:13:56;;;;;;;11.15;6.70;;;;;;;;;;5034784;28;20041;-72
2023/05/05 05:16:24;;;;;;;12.73;6.30;;;;;;;;;;5034920;28;20042;-72
2023/05/05 05:18:50;;;;;;;10.38;6.07;;;;;;;;;;5034567;28;20124;-74
2023/05/05 05:21:16;;;;;;;10.50;6.50;;;;;;;;;;5034499;28;20513;-74
2023/05/05 05:23:42;;;;;;;10.45;5.82;;;;;;;;;;5035548;28;20175;-75
2023/05/05 05:26:07;;;;;;;10.52;6.22;;;;;;;;;;5017781;28;20128;-74
2023/05/05 05:28:33;;;;;;;10.43;6.50;;;;;;;;;;5035916;28;20049;-74
2023/05/05 05:31:00;;;;;;;11.63;6.53;;;;;;;;;;5020651;28;20049;-74
2023/05/05 05:33:26;;;;;;;10.13;6.70;;;;;;;;;;5035983;28;20045;-73
2023/05/05 05:35:52;;;;;;;11.43;6.22;;;;;;;;;;5035619;28;20049;-74
2023/05/05 05:38:18;;;;;;;10.90;6.38;;;;;;;;;;5034987;28;20077;-74
2023/05/05 05:40:44;;;;;;;12.88;5.88;;;;;;;;;;5033566;28;20069;-74
2023/05/05 05:43:10;;;;;;;10.93;6.60;;;;;;;;;;5034776;28;20053;-74
2023/05/05 05:45:36;;;;;;;11.00;6.45;;;;;;;;;;5015538;28;20379;-74
2023/05/05 05:48:02;;;;;;;11.00;6.60;;;;;;;;;;5034628;28;20390;-74
2023/05/05 05:50:28;;;;;;;9.70;6.55;;;;;;;;;;5034711;28;20050;-74
2023/05/05 05:52:54;;;;;;;13.63;6.20;;;;;;;;;;5016977;28;20042;-74
2023/05/05 05:55:20;;;;;;;11.50;6.13;;;;;;;;;;5016324;28;20053;-74
2023/05/05 05:57:46;;;;;;;8.50;5.90;;;;;;;;;;5016675;28;20045;-75
2023/05/05 06:00:14;;;;;;;9.82;6.32;;;;;;;;;;5031888;28;20132;-74
2023/05/05 06:02:40;;;;;;;10.52;6.43;;;;;;;;;;5032149;28;20072;-75
2023/05/05 06:05:06;;;;;;;9.80;6.40;;;;;;;;;;5034166;28;20042;-74
2023/05/05 06:07:32;;;;;;;10.63;6.30;;;;;;;;;;5034449;28;20046;-74
2023/05/05 06:09:58;;;;;;;11.07;6.68;;;;;;;;;;5034163;28;20179;-73
2023/05/05 06:12:24;;;;;;;11.07;6.13;;;;;;;;;;5015698;28;20486;-74
2023/05/05 06:14:50;;;;;;;10.45;6.15;;;;;;;;;;5015878;28;20049;-74
2023/05/05 06:17:16;;;;;;;9.88;6.72;;;;;;;;;;5034036;28;20053;-74
2023/05/05 06:19:42;;;;;;;10.95;6.82;;;;;;;;;;5033197;28;20033;-73
2023/05/05 06:22:09;;;;;;;12.93;7.68;;;;;;;;;;5043948;28;20044;-74
2023/05/05 06:24:35;;;;;;;11.18;7.25;;;;;;;;;;5052548;28;20091;-74
2023/05/05 06:27:01;;;;;;;12.25;6.70;;;;;;;;;;5036588;28;20068;-74
2023/05/05 06:29:27;;;;;;;12.07;7.30;;;;;;;;;;5032232;28;20133;-74
2023/05/05 06:31:54;;;;;;;14.48;7.32;;;;;;;;;;5030588;28;20054;-74
2023/05/05 06:34:20;;;;;;;13.13;6.72;;;;;;;;;;5015194;28;20092;-74
2023/05/05 06:36:46;;;;;;;10.13;5.85;;;;;;;;;;5033840;28;20045;-74
2023/05/05 06:39:12;;;;;;;12.82;6.53;;;;;;;;;;5033618;28;20040;-74
2023/05/05 06:41:38;;;;;;;10.23;6.10;;;;;;;;;;5033305;28;20048;-74
2023/05/05 06:44:04;;;;;;;8.98;6.30;;;;;;;;;;5032254;28;20042;-74
2023/05/05 06:46:30;;;;;;;8.07;6.13;;;;;;;;;;5033426;28;20072;-74
2023/05/05 06:48:58;;;;;;;10.05;6.30;;;;;;;;;;5032683;28;20064;-74
2023/05/05 06:51:24;;;;;;;11.95;6.55;;;;;;;;;;5031757;28;20501;-74
2023/05/05 06:53:50;;;;;;;9.93;7.20;;;;;;;;;;5015089;28;20417;-73
2023/05/05 06:56:16;;;;;;;11.18;6.97;;;;;;;;;;5023736;28;20430;-74
2023/05/05 06:58:42;;;;;;;12.40;7.10;;;;;;;;;;5049900;28;20041;-74
2023/05/05 07:01:08;;;;;;;10.07;6.38;;;;;;;;;;5029294;28;20091;-74
2023/05/05 07:03:34;;;;;;;13.15;6.65;;;;;;;;;;5050404;28;20041;-74
2023/05/05 07:06:00;;;;;;;11.70;6.18;;;;;;;;;;5032074;28;20053;-74
2023/05/05 07:08:26;;;;;;;9.88;6.65;;;;;;;;;;5032488;28;20046;-74
2023/05/05 07:10:52;;;;;;;13.07;6.68;;;;;;;;;;5032872;28;20048;-73
2023/05/05 07:13:18;;;;;;;9.77;6.32;;;;;;;;;;5032808;28;20041;-73
2023/05/05 07:15:45;;;;;;;12.65;6.90;;;;;;;;;;5032461;28;20069;-74
2023/05/05 07:18:15;;;;;;;14.93;6.82;;;;;;;;;;5032821;28;20044;-74
2023/05/05 07:20:42;;;;;;;11.77;7.05;;;;;;;;;;5031388;28;20517;-74
2023/05/05 07:23:10;;;;;;;12.10;6.68;;;;;;;;;;5032541;28;20034;-74
2023/05/05 07:25:36;;;;;;;10.10;6.55;;;;;;;;;;5032891;28;20049;-74
2023/05/05 07:28:02;;;;;;;10.27;6.55;;;;;;;;;;5015031;28;20391;-74
2023/05/05 07:30:28;;;;;;;10.25;6.78;;;;;;;;;;5032023;28;20037;-74
2023/05/05 07:32:55;;;;;;;12.35;6.75;;;;;;;;;;5032340;28;20053;-74
2023/05/05 07:35:22;;;;;;;9.48;7.30;;;;;;;;;;5019520;28;20128;-75
2023/05/05 07:37:48;;;;;;;13.88;7.72;;;;;;;;;;5030439;28;20041;-75
2023/05/05 07:40:15;;;;;;;11.90;7.70;;;;;;;;;;5029569;28;20042;-72
2023/05/05 07:42:41;;;;;;;11.20;7.57;;;;;;;;;;5030352;28;20049;-73
2023/05/05 07:45:07;;;;;;;11.82;7.45;;;;;;;;;;5030476;28;20037;-73
2023/05/05 07:47:33;;;;;;;12.18;7.40;;;;;;;;;;5032602;28;20107;-74
2023/05/05 07:50:00;;;;;;;9.27;6.72;;;;;;;;;;5031197;28;20445;-75
2023/05/05 07:52:26;;;;;;;12.25;7.20;;;;;;;;;;5012811;28;20057;-74
2023/05/05 07:54:52;;;;;;;9.88;6.85;;;;;;;;;;5021322;28;20090;-74
2023/05/05 07:57:18;;;;;;;11.65;7.50;;;;;;;;;;5051091;28;20053;-74
2023/05/05 07:59:44;;;;;;;10.98;7.60;;;;;;;;;;5036943;28;20452;-75
2023/05/05 08:02:11;;;;;;;10.50;7.47;;;;;;;;;;5030881;28;20061;-74
2023/05/05 08:04:38;;;;;;;12.43;8.02;;;;;;;;;;5033067;28;20123;-74
2023/05/05 08:07:04;;;;;;;13.15;7.50;;;;;;;;;;5035465;28;20452;-74
2023/05/05 08:09:30;;;;;;;10.95;7.00;;;;;;;;;;5012078;28;20087;-74
2023/05/05 08:11:56;;;;;;;9.57;7.00;;;;;;;;;;5030917;28;20118;-74
2023/05/05 08:14:22;;;;;;;13.32;7.10;;;;;;;;;;5032331;28;20561;-74
2023/05/05 08:16:48;;;;;;;13.50;7.70;;;;;;;;;;5034639;28;20043;-74
2023/05/05 08:19:16;;;;;;;10.95;7.40;;;;;;;;;;5050587;28;20497;-75
2023/05/05 08:21:42;;;;;;;13.88;7.35;;;;;;;;;;5030700;28;20059;-75
2023/05/05 08:24:08;;;;;;;11.93;7.95;;;;;;;;;;5031677;28;20069;-75
2023/05/05 08:26:34;;;;;;;11.43;7.72;;;;;;;;;;5031837;28;20585;-73
2023/05/05 08:29:00;;;;;;;12.30;7.50;;;;;;;;;;5028833;28;20078;-74
2023/05/05 08:31:33;;;;;;;10.10;7.70;;;;;;;;;;5014150;28;20056;-75
2023/05/05 08:33:58;;;;;;;10.00;7.30;;;;;;;;;;5035818;28;20041;-75
2023/05/05 08:36:26;;;;;;;11.23;7.63;;;;;;;;;;5036118;28;20056;-76
2023/05/05 08:38:52;;;;;;;10.85;7.90;;;;;;;;;;5000940;28;20085;-74
2023/05/05 08:41:18;;;;;;;12.60;7.75;;;;;;;;;;5029900;28;20134;-74
2023/05/05 08:43:49;;;;;;;12.50;8.23;;;;;;;;;;5011562;28;20071;-74
2023/05/05 08:46:15;;;;;;;11.82;7.35;;;;;;;;;;5030257;28;20556;-75
2023/05/05 08:48:42;;;;;;;10.88;7.70;;;;;;;;;;5032182;28;20406;-75
2023/05/05 08:51:09;;;;;;;10.85;7.95;;;;;;;;;;5030361;28;20053;-75
2023/05/05 08:53:41;;;;;;;11.45;8.10;;;;;;;;;;5034012;28;20044;-75
2023/05/05 08:56:07;;;;;;;14.13;8.43;;;;;;;;;;5017934;28;20136;-75
2023/05/05 08:58:36;;;;;;;12.32;7.90;;;;;;;;;;5034917;28;20041;-76
2023/05/05 09:01:02;;;;;;;14.35;8.43;;;;;;;;;;5034790;28;20065;-75
2023/05/05 09:03:32;;;;;;;11.80;8.45;;;;;;;;;;5014132;28;20068;-75
2023/05/05 09:05:58;;;;;;;12.40;8.75;;;;;;;;;;5017214;28;20033;-75
2023/05/05 09:08:25;;;;;;;12.32;8.40;;;;;;;;;;5035395;28;20099;-75
2023/05/05 09:10:51;;;;;;;13.40;9.05;;;;;;;;;;5017185;28;20068;-75
2023/05/05 09:13:17;;;;;;;11.70;9.10;;;;;;;;;;5034779;28;20135;-75
2023/05/05 09:15:43;;;;;;;11.70;8.77;;;;;;;;;;5034837;28;20415;-76
2023/05/05 09:18:11;;;;;;;12.43;9.20;;;;;;;;;;5016219;28;20048;-75
2023/05/05 09:20:38;;;;;;;14.55;9.05;;;;;;;;;;5048637;28;20052;-73
2023/05/05 09:23:12;;;;;;;13.57;9.60;;;;;;;;;;5033531;28;20449;-74
2023/05/05 09:25:38;;;;;;;15.00;9.20;;;;;;;;;;5054969;28;20049;-75
2023/05/05 09:28:09;;;;;;;15.05;9.00;;;;;;;;;;5053535;28;20041;-79
2023/05/05 09:30:35;;;;;;;14.40;9.68;;;;;;;;;;5036025;28;20057;-75
2023/05/05 09:33:01;;;;;;;12.13;9.20;;;;;;;;;;5016558;28;20483;-75
2023/05/05 09:35:28;;;;;;;14.27;9.82;;;;;;;;;;5016311;28;20096;-75
2023/05/05 09:37:54;;;;;;;15.80;10.27;;;;;;;;;;5016569;28;20049;-74
2023/05/05 09:40:20;;;;;;;11.88;9.30;;;;;;;;;;5033112;28;20155;-74
2023/05/05 09:42:46;;;;;;;14.35;9.52;;;;;;;;;;5032578;28;20132;-75
2023/05/05 09:45:19;;;;;;;16.20;9.93;;;;;;;;;;5034313;28;20436;-74
2023/05/05 09:47:45;;;;;;;16.08;9.90;;;;;;;;;;5034282;28;20088;-74
2023/05/05 09:50:17;;;;;;;16.00;9.90;;;;;;;;;;5031062;28;20099;-74
2023/05/05 09:52:53;;;;;;;11.45;9.55;;;;;;;;;;5034457;28;20053;-75
2023/05/05 09:55:19;;;;;;;15.98;10.38;;;;;;;;;;5034286;28;20053;-75
2023/05/05 09:57:46;;;;;;;15.07;9.85;;;;;;;;;;5034198;28;20074;-75
2023/05/05 10:00:13;;;;;;;13.43;10.40;;;;;;;;;;5033734;28;20054;-75
2023/05/05 10:02:39;;;;;;;14.68;10.05;;;;;;;;;;5033035;28;20071;-75
2023/05/05 10:05:09;;;;;;;14.07;10.50;;;;;;;;;;5032840;28;20042;-75
2023/05/05 10:07:36;;;;;;;14.65;10.63;;;;;;;;;;5034212;28;20081;-76
2023/05/05 10:10:06;;;;;;;21.38;10.25;;;;;;;;;;5015990;28;20379;-75
2023/05/05 10:12:34;;;;;;;19.58;11.15;;;;;;;;;;5034052;28;20050;-75
2023/05/05 10:15:02;;;;;;;13.55;10.48;;;;;;;;;;5033630;28;20052;-76
2023/05/05 10:17:30;;;;;;;13.07;10.05;;;;;;;;;;5016297;28;20049;-75
2023/05/05 10:19:58;;;;;;;12.90;9.50;;;;;;;;;;5032481;28;20045;-76
2023/05/05 10:22:24;;;;;;;16.60;10.10;;;;;;;;;;5015711;28;20423;-76
2023/05/05 10:24:54;;;;;;;12.32;9.48;;;;;;;;;;5015881;28;20096;-75
2023/05/05 10:27:20;;;;;;;12.85;9.75;;;;;;;;;;5033517;28;20046;-75
2023/05/05 10:29:49;;;;;;;12.48;9.63;;;;;;;;;;5033663;28;20056;-75
2023/05/05 10:32:20;;;;;;;12.23;9.65;;;;;;;;;;5033688;28;20413;-75
2023/05/05 10:34:50;;;;;;;12.90;9.65;;;;;;;;;;5033674;28;20053;-75
2023/05/05 10:37:17;;;;;;;12.68;9.02;;;;;;;;;;5032644;28;20466;-75
2023/05/05 10:39:44;;;;;;;13.82;9.30;;;;;;;;;;5015508;28;20504;-75
2023/05/05 10:42:11;;;;;;;12.18;9.88;;;;;;;;;;5032523;28;20053;-75
2023/05/05 10:44:38;;;;;;;13.88;10.35;;;;;;;;;;5033395;28;20044;-75
2023/05/05 10:47:05;;;;;;;12.75;9.80;;;;;;;;;;5032026;28;20053;-75
2023/05/05 10:49:37;;;;;;;10.82;9.55;;;;;;;;;;5031882;28;20072;-75
2023/05/05 10:52:13;;;;;;;13.63;9.93;;;;;;;;;;5033205;28;20064;-75
2023/05/05 10:54:49;;;;;;;14.48;10.73;;;;;;;;;;5031362;28;20045;-75
2023/05/05 10:57:18;;;;;;;13.32;10.90;;;;;;;;;;5033330;28;20375;-74
2023/05/05 10:59:45;;;;;;;16.15;13.30;;;;;;;;;;5030693;28;20474;-75
2023/05/05 11:02:20;;;;;;;15.18;13.35;;;;;;;;;;5033028;28;20057;-74
2023/05/05 11:05:05;;;;;;;19.52;14.05;;;;;;;;;;5031969;28;20161;-75
2023/05/05 11:07:33;;;;;;;17.13;14.90;;;;;;;;;;5015041;28;20045;-74
2023/05/05 11:10:03;;;;;;;18.35;14.82;;;;;;;;;;5015190;28;20094;-75
2023/05/05 11:12:30;;;;;;;18.23;14.07;;;;;;;;;;5032798;28;20143;-75
2023/05/05 11:15:15;;;;;;;18.67;13.63;;;;;;;;;;5032558;28;20494;-75
2023/05/05 11:17:45;;;;;;;17.83;14.23;;;;;;;;;;5031343;28;20052;-75
2023/05/05 11:20:11;;;;;;;19.20;14.15;;;;;;;;;;5029632;28;20077;-76
2023/05/05 11:22:56;;;;;;;19.23;14.95;;;;;;;;;;5031614;28;20048;-75
2023/05/05 11:25:34;;;;;;;17.58;13.82;;;;;;;;;;5031968;28;20406;-76
2023/05/05 11:28:05;;;;;;;19.45;13.88;;;;;;;;;;5032570;28;20087;-76
2023/05/05 11:30:31;;;;;;;17.75;14.65;;;;;;;;;;5032491;28;20049;-76
2023/05/05 11:33:17;;;;;;;27.02;13.80;;;;;;;;;;5014064;28;20041;-75
2023/05/05 11:36:02;;;;;;;14.60;12.52;;;;;;;;;;5031738;28;20038;-75
2023/05/05 11:38:43;;;;;;;17.80;13.63;;;;;;;;;;5032705;28;20497;-75
2023/05/05 11:41:13;;;;;;;15.48;12.82;;;;;;;;;;5030946;28;20072;-75
2023/05/05 11:43:40;;;;;;;17.45;12.30;;;;;;;;;;5031990;28;20112;-75
2023/05/05 11:46:13;;;;;;;15.52;11.88;;;;;;;;;;5034803;28;20049;-75
2023/05/05 11:48:45;;;;;;;14.90;11.52;;;;;;;;;;5037668;28;20052;-75
2023/05/05 11:51:12;;;;;;;15.38;11.43;;;;;;;;;;5032320;28;20045;-75
2023/05/05 11:53:48;;;;;;;14.05;11.10;;;;;;;;;;5029078;28;20041;-75
2023/05/05 11:56:17;;;;;;;14.77;11.25;;;;;;;;;;5031693;28;20187;-75
2023/05/05 11:59:05;;;;;;;15.70;12.07;;;;;;;;;;5032490;28;20061;-75
2023/05/05 12:01:32;;;;;;;15.82;12.43;;;;;;;;;;5032583;28;20072;-76
2023/05/05 12:03:58;;;;;;;15.15;12.25;;;;;;;;;;5032481;28;20087;-76
2023/05/05 12:06:25;;;;;;;15.63;12.15;;;;;;;;;;5032455;28;20461;-75
2023/05/05 12:08:51;;;;;;;17.33;12.45;;;;;;;;;;5030933;28;20060;-76
2023/05/05 12:11:17;;;;;;;16.13;12.18;;;;;;;;;;5031252;28;20045;-76
2023/05/05 12:13:43;;;;;;;15.35;12.10;;;;;;;;;;5030295;28;20045;-76
2023/05/05 12:16:10;;;;;;;17.20;12.75;;;;;;;;;;5032320;28;20083;-76
2023/05/05 12:18:36;;;;;;;18.48;12.65;;;;;;;;;;5014245;28;20133;-75
2023/05/05 12:21:12;;;;;;;14.98;12.18;;;;;;;;;;5031532;28;20421;-76
2023/05/05 12:23:38;;;;;;;15.15;11.25;;;;;;;;;;5032415;28;20378;-75
2023/05/05 12:26:04;;;;;;;14.63;10.10;;;;;;;;;;5032129;28;20052;-75
2023/05/05 12:28:43;;;;;;;15.60;10.43;;;;;;;;;;5035020;28;20398;-75
2023/05/05 12:31:10;;;;;;;13.10;10.23;;;;;;;;;;5017786;28;20046;-76
2023/05/05 12:33:39;;;;;;;13.55;10.77;;;;;;;;;;5016024;28;20042;-76
2023/05/05 12:36:06;;;;;;;16.15;10.48;;;;;;;;;;5035927;28;20061;-75
2023/05/05 12:38:32;;;;;;;14.25;10.15;;;;;;;;;;5035708;28;20033;-76
2023/05/05 12:40:58;;;;;;;13.20;10.10;;;;;;;;;;5035648;28;20048;-75
2023/05/05 12:43:27;;;;;;;14.15;10.45;;;;;;;;;;5035411;28;20045;-75
2023/05/05 12:46:07;;;;;;;11.88;9.27;;;;;;;;;;5035442;28;20128;-74
2023/05/05 12:48:33;;;;;;;12.70;8.90;;;;;;;;;;5035621;28;20367;-74
2023/05/05 12:51:16;;;;;;;11.73;8.85;;;;;;;;;;5035055;28;20477;-75
2023/05/05 12:53:42;;;;;;;11.40;8.30;;;;;;;;;;5035275;28;20050;-75
2023/05/05 12:56:27;;;;;;;15.63;8.40;;;;;;;;;;5035277;28;20124;-75
2023/05/05 12:58:54;;;;;;;12.17;7.83;;;;;;;;;;5035038;28;20046;-75
2023/05/05 13:01:20;;;;;;;11.70;7.55;;;;;;;;;;5033704;28;20092;-75
2023/05/05 13:03:46;;;;;;;12.07;8.48;;;;;;;;;;5035240;28;20045;-75
2023/05/05 13:06:20;;;;;;;12.52;8.75;;;;;;;;;;5033755;28;20099;-75
2023/05/05 13:08:46;;;;;;;13.18;8.80;;;;;;;;;;5017477;28;20412;-75
2023/05/05 13:11:12;;;;;;;10.73;8.52;;;;;;;;;;5034928;28;20124;-75
2023/05/05 13:13:38;;;;;;;13.48;8.77;;;;;;;;;;5035370;28;20434;-76
2023/05/05 13:16:04;;;;;;;13.10;8.02;;;;;;;;;;5033499;28;20199;-75
2023/05/05 13:18:30;;;;;;;10.75;6.97;;;;;;;;;;5033239;28;20157;-75
2023/05/05 13:20:56;;;;;;;11.90;6.60;;;;;;;;;;5032800;28;20041;-75
2023/05/05 13:23:22;;;;;;;10.05;6.30;;;;;;;;;;5034905;28;20184;-75
2023/05/05 13:25:48;;;;;;;9.85;6.25;;;;;;;;;;5034947;28;20081;-76
2023/05/05 13:28:14;;;;;;;9.20;6.22;;;;;;;;;;5034471;28;20053;-74
2023/05/05 13:30:41;;;;;;;11.13;7.07;;;;;;;;;;5016862;28;20486;-75
2023/05/05 13:33:07;;;;;;;13.60;6.80;;;;;;;;;;5033653;28;20486;-75
2023/05/05 13:35:33;;;;;;;10.90;7.32;;;;;;;;;;5030009;28;20111;-74
2023/05/05 13:37:59;;;;;;;10.27;7.38;;;;;;;;;;5027712;28;20037;-73
2023/05/05 13:40:25;;;;;;;13.30;8.50;;;;;;;;;;5029526;28;20467;-74
2023/05/05 13:42:51;;;;;;;13.18;8.02;;;;;;;;;;5026582;28;20477;-73
2023/05/05 13:45:18;;;;;;;11.00;6.25;;;;;;;;;;5032785;28;20124;-73
2023/05/05 13:47:45;;;;;;;7.60;5.30;;;;;;;;;;5009792;28;20052;-80
2023/05/05 13:50:11;;;;;;;6.35;3.95;;;;;;;;;;5027358;28;20044;-78
2023/05/05 13:52:37;;;;;;;7.07;5.10;;;;;;;;;;5030493;28;20120;-75
2023/05/05 13:55:03;;;;;;;9.60;5.43;;;;;;;;;;5014503;28;20046;-77
2023/05/05 13:57:30;;;;;;;11.77;8.07;;;;;;;;;;5028729;28;20091;-76
2023/05/05 13:59:56;;;;;;;13.95;9.07;;;;;;;;;;5028812;28;20466;-77
2023/05/05 14:02:22;;;;;;;13.20;8.73;;;;;;;;;;5013012;28;20095;-77
2023/05/05 14:04:48;;;;;;;12.80;8.82;;;;;;;;;;5014086;28;20549;-76
2023/05/05 14:07:14;;;;;;;13.27;7.95;;;;;;;;;;5027498;28;20049;-78
2023/05/05 14:09:40;;;;;;;12.18;8.10;;;;;;;;;;5024793;28;20046;-75
2023/05/05 14:12:06;;;;;;;10.75;8.02;;;;;;;;;;5010098;28;20112;-76
2023/05/05 14:14:33;;;;;;;10.75;7.70;;;;;;;;;;5014996;28;20053;-75
2023/05/05 14:16:59;;;;;;;11.43;7.68;;;;;;;;;;5030984;28;20053;-75
2023/05/05 14:19:25;;;;;;;13.43;7.80;;;;;;;;;;5031653;28;20129;-76
2023/05/05 14:21:51;;;;;;;10.93;6.97;;;;;;;;;;5025282;28;20061;-75
2023/05/05 14:24:17;;;;;;;8.27;6.10;;;;;;;;;;5029518;28;20045;-75
2023/05/05 14:26:43;;;;;;;9.65;5.43;;;;;;;;;;5031442;28;20049;-76
2023/05/05 14:29:09;;;;;;;7.93;4.90;;;;;;;;;;5031907;28;20502;-76
2023/05/05 14:31:35;;;;;;;7.40;4.00;;;;;;;;;;5029035;28;20057;-71
2023/05/05 14:34:01;;;;;;;5.88;3.40;;;;;;;;;;5031427;28;20046;-74